Nearby METAR Reports

 

NZAA - Auckland Intl Ar, New Zealand
Distance from station: SW 18km
Updated: 13/12/2019 18:00
Clear
Clear
 Wind from WSW
Wind: WSW 17 km/h
Temperature: 21°C
Dew Point: 14°C
Humidity: 64%
Barometer: 1007 hPa
Clouds: Clear
Visibility: 10 km
2019/12/13 05:00 NZAA 130500Z AUTO 25009KT 9999 NCD 21/14 Q1007 NOSIG
NZWN - Wellington Intl, New Zealand
Distance from station: S 493km
Updated: 13/12/2019 18:00
Few Clouds
Few Clouds
 Wind from NNW
Wind: NNW 30 km/h, Gust: 54 km/h
Temperature: 19°C
Dew Point: 13°C
Humidity: 68%
Barometer: 1002 hPa
Clouds: Few Clouds
Visibility: 10 km
Cloud details: Few Clouds 701 m
2019/12/13 05:00 NZWN 130500Z AUTO 34016G29KT 300V010 9999 FEW023/// 19/13 Q1002 NOSIG
 
NZCH - Christchurch Int, New Zealand
Distance from station: SSW 759km
Updated: 13/12/2019 18:00
Clear
Clear
 Wind from NNW
Wind: NNW 17 km/h
Temperature: 27°C
Dew Point: 9°C
Humidity: 32%
Barometer: 995 hPa
Clouds: Clear
Visibility: 10 km
2019/12/13 05:00 NZCH 130500Z AUTO 33009KT 290V020 9999 NCD 27/09 Q0995 NOSIG
YSNF - Norfolk Island A, Australia
Distance from station: NW 1091km
Updated: 13/12/2019 18:00
Partly cloudy
Partly cloudy
 Wind from W
Wind: W 13 km/h
Temperature: 22°C
Dew Point: 14°C
Humidity: 61%
Barometer: 1013 hPa
Clouds: Partly cloudy
Visibility: 10 km
Cloud details: Partly cloudy 823 m
2019/12/13 05:00 YSNF 130500Z AUTO 27007KT 230V310 9999 // SCT027 22/14 Q1013